Time;durP1;ratioP1;P1;durP2;ratioP2;P2;SDS_P1;SDS_P2;PMS_P1;PMS_P2;Temp;Humidity;BMP_temperature;BMP_pressure;BME280_temperature;BME280_humidity;BME280_pressure;Samples;Min_cycle;Max_cycle;Signal;HPM_P1;HPM_P2
2022/03/20 00:02:28;;;;;;;1.67;1.40;;;20.90;41.50;;;;;;5146258;27;43433;-63
2022/03/20 00:04:56;;;;;;;1.67;1.17;;;20.90;41.50;;;;;;5146396;27;43572;-63
2022/03/20 00:07:23;;;;;;;1.75;1.40;;;20.90;41.50;;;;;;5128336;27;43411;-63
2022/03/20 00:09:51;;;;;;;1.40;1.30;;;20.90;41.60;;;;;;5145643;27;45313;-63
2022/03/20 00:12:19;;;;;;;1.30;1.20;;;20.90;41.50;;;;;;5146199;27;43915;-63
2022/03/20 00:14:46;;;;;;;1.70;1.33;;;20.90;41.60;;;;;;5147031;27;43446;-62
2022/03/20 00:17:14;;;;;;;1.33;1.23;;;20.90;41.70;;;;;;5148747;27;43398;-63
2022/03/20 00:19:41;;;;;;;1.42;1.30;;;20.80;41.60;;;;;;5145652;27;44687;-63
2022/03/20 00:22:11;;;;;;;1.63;1.20;;;20.80;41.60;;;;;;5145889;27;43715;-63
2022/03/20 00:24:40;;;;;;;1.27;1.17;;;20.80;41.70;;;;;;5147698;27;43439;-63
2022/03/20 00:27:10;;;;;;;2.05;1.35;;;20.80;41.70;;;;;;5146257;27;43419;-63
2022/03/20 00:29:39;;;;;;;1.77;1.27;;;20.70;41.70;;;;;;5144369;27;43813;-63
2022/03/20 00:32:08;;;;;;;1.77;1.45;;;20.70;41.70;;;;;;5145505;27;44026;-63
2022/03/20 00:34:37;;;;;;;1.38;1.20;;;20.70;41.70;;;;;;5145769;27;43472;-63
2022/03/20 00:37:08;;;;;;;1.30;1.00;;;20.70;41.60;;;;;;5147510;27;43429;-63
2022/03/20 00:39:35;;;;;;;;;;;20.70;41.70;;;;;;5145443;27;44736;-63
2022/03/20 00:42:04;;;;;;;1.50;1.40;;;20.70;41.60;;;;;;5148018;27;43461;-64
2022/03/20 00:44:32;;;;;;;1.90;1.30;;;20.70;41.60;;;;;;5128314;27;43428;-62
2022/03/20 00:47:00;;;;;;;1.58;1.20;;;20.60;41.70;;;;;;5146441;27;43529;-63
2022/03/20 00:49:27;;;;;;;1.27;1.17;;;20.60;41.60;;;;;;5145131;27;43779;-63
2022/03/20 00:51:56;;;;;;;1.77;1.30;;;20.60;41.70;;;;;;5147822;27;43760;-63
2022/03/20 00:54:23;;;;;;;2.42;1.38;;;20.60;41.60;;;;;;5147620;27;43438;-63
2022/03/20 00:56:51;;;;;;;2.13;1.58;;;20.60;41.80;;;;;;5147310;27;43534;-63
2022/03/20 00:59:19;;;;;;;1.83;1.50;;;20.60;41.70;;;;;;5141729;27;43891;-63
2022/03/20 01:01:46;;;;;;;1.75;1.38;;;20.60;41.80;;;;;;5147596;27;43493;-63
2022/03/20 01:04:14;;;;;;;1.88;1.38;;;20.60;41.80;;;;;;5147787;27;43447;-63
2022/03/20 01:06:41;;;;;;;2.75;1.30;;;20.50;41.60;;;;;;5121713;27;43531;-62
2022/03/20 01:09:09;;;;;;;1.50;1.40;;;20.50;41.80;;;;;;5147579;27;43817;-63
2022/03/20 01:11:38;;;;;;;1.17;1.10;;;20.50;41.70;;;;;;5147765;27;43389;-63
2022/03/20 01:14:07;;;;;;;1.35;1.25;;;20.50;41.80;;;;;;5144920;27;43464;-62
2022/03/20 01:16:34;;;;;;;1.50;1.40;;;20.50;41.80;;;;;;5142915;27;43381;-63
2022/03/20 01:19:02;;;;;;;1.52;1.33;;;20.50;41.70;;;;;;5146689;27;43748;-63
2022/03/20 01:21:30;;;;;;;1.73;1.30;;;20.50;41.80;;;;;;5147450;27;43741;-63
2022/03/20 01:23:57;;;;;;;1.48;1.35;;;20.40;41.70;;;;;;5143682;27;43438;-63
2022/03/20 01:26:25;;;;;;;1.58;1.48;;;20.40;41.80;;;;;;5145390;27;43529;-63
2022/03/20 01:28:52;;;;;;;1.42;1.33;;;20.40;41.70;;;;;;5123979;27;44043;-63
2022/03/20 01:31:19;;;;;;;1.70;1.50;;;20.40;41.80;;;;;;5147304;27;43426;-63
2022/03/20 01:33:47;;;;;;;2.17;1.30;;;20.40;41.80;;;;;;5144972;27;43500;-63
2022/03/20 01:36:14;;;;;;;2.22;1.50;;;20.30;41.80;;;;;;5144996;27;44003;-63
2022/03/20 01:38:42;;;;;;;1.65;1.55;;;20.40;41.80;;;;;;5127189;27;45095;-63
2022/03/20 01:41:09;;;;;;;1.55;1.45;;;20.40;41.80;;;;;;5147379;27;43692;-63
2022/03/20 01:43:38;;;;;;;1.90;1.45;;;20.30;41.80;;;;;;5142176;27;43511;-63
2022/03/20 01:46:05;;;;;;;1.63;1.52;;;20.30;41.70;;;;;;5145114;27;43630;-63
2022/03/20 01:48:33;;;;;;;1.40;1.30;;;20.30;41.80;;;;;;5147361;27;45031;-63
2022/03/20 01:51:00;;;;;;;1.75;1.42;;;20.30;41.80;;;;;;5130504;27;44923;-63
2022/03/20 01:53:28;;;;;;;1.70;1.60;;;20.30;41.80;;;;;;5147434;27;43528;-63
2022/03/20 01:55:57;;;;;;;1.70;1.50;;;20.30;41.80;;;;;;5144673;27;43419;-63
2022/03/20 01:58:25;;;;;;;1.58;1.48;;;20.30;41.80;;;;;;5147152;27;44716;-63
2022/03/20 02:00:52;;;;;;;1.98;1.60;;;20.20;41.70;;;;;;5144691;27;43893;-62
2022/03/20 02:03:20;;;;;;;2.08;1.58;;;20.20;41.80;;;;;;5144822;27;43478;-62
2022/03/20 02:05:48;;;;;;;1.77;1.58;;;20.20;41.80;;;;;;5146958;27;43987;-63
2022/03/20 02:08:16;;;;;;;2.00;1.70;;;20.20;41.80;;;;;;5146991;27;44653;-63
2022/03/20 02:10:45;;;;;;;1.80;1.67;;;20.20;41.80;;;;;;5144002;27;43437;-63
2022/03/20 02:13:12;;;;;;;2.05;1.60;;;20.10;41.80;;;;;;5144279;27;43440;-63
2022/03/20 02:15:41;;;;;;;1.52;1.42;;;20.20;41.80;;;;;;5146248;27;43753;-63
2022/03/20 02:18:10;;;;;;;1.50;1.40;;;20.20;41.80;;;;;;5146513;27;43795;-63
2022/03/20 02:20:37;;;;;;;3.35;1.90;;;20.20;41.80;;;;;;5146530;27;44316;-62
2022/03/20 02:23:05;;;;;;;1.60;1.50;;;20.20;41.80;;;;;;5144038;27;43587;-63
2022/03/20 02:25:34;;;;;;;1.80;1.60;;;20.20;41.80;;;;;;5141262;27;43990;-63
2022/03/20 02:28:02;;;;;;;2.22;1.58;;;20.20;41.80;;;;;;5125497;27;46119;-62
2022/03/20 02:30:30;;;;;;;1.85;1.70;;;20.10;41.80;;;;;;5144085;27;43535;-63
2022/03/20 02:32:59;;;;;;;2.28;1.60;;;20.10;41.80;;;;;;5146368;27;43463;-63
2022/03/20 02:35:27;;;;;;;2.13;1.60;;;20.10;41.80;;;;;;5146277;27;43442;-63
2022/03/20 02:37:55;;;;;;;1.45;1.38;;;20.10;41.80;;;;;;5143625;27;44955;-63
2022/03/20 02:40:23;;;;;;;1.60;1.50;;;20.10;41.80;;;;;;5143790;27;43405;-63
2022/03/20 02:42:54;;;;;;;2.15;1.77;;;20.10;41.70;;;;;;5146005;27;43400;-63
2022/03/20 02:45:30;;;;;;;2.00;1.80;;;20.00;41.70;;;;;;5146365;27;43455;-63
2022/03/20 02:48:00;;;;;;;1.95;1.80;;;20.10;41.80;;;;;;5141134;27;43884;-63
2022/03/20 02:50:34;;;;;;;2.27;1.60;;;20.00;41.80;;;;;;5117006;27;43511;-63
2022/03/20 02:53:02;;;;;;;1.90;1.75;;;20.00;41.80;;;;;;5146097;27;43413;-62
2022/03/20 02:55:34;;;;;;;2.10;2.00;;;20.00;41.80;;;;;;5145967;27;43512;-63
2022/03/20 02:58:04;;;;;;;2.80;1.75;;;20.00;41.80;;;;;;5143372;27;45003;-63
2022/03/20 03:00:33;;;;;;;2.22;2.00;;;20.00;41.80;;;;;;5145888;27;43843;-63
2022/03/20 03:03:02;;;;;;;2.80;2.10;;;19.90;41.80;;;;;;5143585;27;43507;-63
2022/03/20 03:05:31;;;;;;;2.65;2.10;;;19.90;41.80;;;;;;5143176;27;43575;-63
2022/03/20 03:10:56;;;;;;;2.25;2.05;;;19.90;41.80;;;;;;5145516;27;43513;-62
2022/03/20 03:13:31;;;;;;;2.00;1.90;;;19.90;41.90;;;;;;5137584;27;43527;-63
2022/03/20 03:16:01;;;;;;;1.80;1.70;;;19.90;41.90;;;;;;5143497;27;43540;-63
2022/03/20 03:18:29;;;;;;;2.03;1.92;;;19.80;41.80;;;;;;5142379;27;46066;-63
2022/03/20 03:20:56;;;;;;;2.30;2.10;;;19.80;41.80;;;;;;5143777;27;43654;-63
2022/03/20 03:23:27;;;;;;;2.10;2.00;;;19.80;41.80;;;;;;5145512;27;43532;-63
2022/03/20 03:25:55;;;;;;;1.70;1.60;;;19.80;41.80;;;;;;5140178;27;43566;-63
2022/03/20 03:28:34;;;;;;;3.22;2.15;;;19.80;41.80;;;;;;5143062;27;44098;-63
2022/03/20 03:31:08;;;;;;;2.20;2.00;;;19.80;41.90;;;;;;5142536;27;43517;-62
2022/03/20 03:36:26;;;;;;;2.58;2.38;;;19.80;41.80;;;;;;5092529;27;44041;-62
2022/03/20 03:38:54;;;;;;;2.88;2.30;;;19.70;41.70;;;;;;5145434;27;45789;-63
2022/03/20 03:41:21;;;;;;;2.50;2.30;;;19.70;41.70;;;;;;5145071;27;44075;-63
2022/03/20 03:43:49;;;;;;;2.40;2.20;;;19.70;41.80;;;;;;5142612;27;43477;-63
2022/03/20 03:46:16;;;;;;;2.42;2.10;;;19.70;41.80;;;;;;5143671;27;43440;-63
2022/03/20 03:48:43;;;;;;;2.40;2.20;;;19.70;41.70;;;;;;5145259;27;44751;-63
2022/03/20 03:51:11;;;;;;;2.50;2.30;;;19.70;41.80;;;;;;5145068;27;43479;-62
2022/03/20 03:53:38;;;;;;;3.20;2.40;;;19.70;41.70;;;;;;5145090;27;43508;-62
2022/03/20 03:56:06;;;;;;;2.50;2.30;;;19.70;41.80;;;;;;5143533;27;43463;-63
2022/03/20 03:58:33;;;;;;;3.42;2.45;;;19.70;41.60;;;;;;5142626;27;44686;-62
2022/03/20 04:01:03;;;;;;;4.13;2.60;;;19.60;41.60;;;;;;5145310;27;43567;-63
2022/03/20 04:03:31;;;;;;;2.60;2.40;;;19.60;41.70;;;;;;5139018;27;43351;-62
2022/03/20 04:06:04;;;;;;;2.30;2.10;;;19.60;41.80;;;;;;5143573;27;44266;-63
2022/03/20 04:08:34;;;;;;;4.07;2.95;;;19.60;41.70;;;;;;5137633;27;44722;-63
2022/03/20 04:11:02;;;;;;;2.47;2.28;;;19.60;42.40;;;;;;5123476;27;43700;-63
2022/03/20 04:13:30;;;;;;;3.50;2.40;;;19.60;41.70;;;;;;5139991;27;43489;-63
2022/03/20 04:15:57;;;;;;;2.63;2.40;;;19.50;41.70;;;;;;5160744;27;43464;-63
2022/03/20 04:18:25;;;;;;;2.95;2.58;;;19.50;41.70;;;;;;5145036;27;43815;-63
2022/03/20 04:20:53;;;;;;;3.50;2.63;;;19.50;41.70;;;;;;5144754;27;43552;-62
2022/03/20 04:26:06;;;;;;;2.97;2.67;;;19.50;41.80;;;;;;5142162;27;43482;-62
2022/03/20 04:28:33;;;;;;;2.65;2.42;;;19.50;41.80;;;;;;5144604;27;43963;-63
2022/03/20 04:31:03;;;;;;;2.70;2.50;;;19.50;41.70;;;;;;5143401;27;43976;-63
2022/03/20 04:33:31;;;;;;;2.95;2.63;;;19.50;41.80;;;;;;5144153;27;43514;-63
2022/03/20 04:35:59;;;;;;;2.78;2.38;;;19.50;41.70;;;;;;5140098;27;43504;-63
2022/03/20 04:38:27;;;;;;;2.95;2.50;;;19.50;41.80;;;;;;5145449;27;44844;-63
2022/03/20 04:40:55;;;;;;;3.47;2.80;;;19.40;41.70;;;;;;5145782;27;43723;-62
2022/03/20 04:43:22;;;;;;;3.70;2.92;;;19.40;41.80;;;;;;5147884;27;43448;-63
2022/03/20 04:45:51;;;;;;;3.17;2.80;;;19.40;41.70;;;;;;5139918;27;43477;-63
2022/03/20 04:59:24;;;;;;;3.10;2.80;;;19.30;41.60;;;;;;5145534;27;43791;-63
2022/03/20 05:01:57;;;;;;;3.15;2.85;;;19.30;41.60;;;;;;5147441;27;43486;-62
2022/03/20 05:04:25;;;;;;;3.80;2.80;;;19.30;41.60;;;;;;5147688;27;43468;-63
2022/03/20 05:06:53;;;;;;;3.47;3.00;;;19.30;42.10;;;;;;5143246;27;43445;-63
2022/03/20 05:14:55;;;;;;;3.70;3.40;;;19.20;41.60;;;;;;5144103;27;43424;-63
2022/03/20 05:17:23;;;;;;;3.63;2.92;;;19.20;41.50;;;;;;5145483;27;43414;-63
2022/03/20 05:19:50;;;;;;;3.20;2.90;;;19.20;41.60;;;;;;5147728;27;44690;-63
2022/03/20 05:22:17;;;;;;;3.45;3.10;;;19.20;41.60;;;;;;5142625;27;43348;-62
2022/03/20 05:24:45;;;;;;;3.95;3.10;;;19.20;41.70;;;;;;5147052;27;43514;-63
2022/03/20 05:27:13;;;;;;;3.10;2.80;;;19.20;41.60;;;;;;5145472;27;43440;-63
2022/03/20 05:29:41;;;;;;;3.42;3.13;;;19.20;41.60;;;;;;5147422;27;43872;-62
2022/03/20 05:32:09;;;;;;;3.28;2.90;;;19.20;41.60;;;;;;5145760;27;43426;-63
2022/03/20 05:34:37;;;;;;;3.53;3.20;;;19.10;41.60;;;;;;5144213;27;43469;-62
2022/03/20 05:37:06;;;;;;;4.03;3.00;;;19.10;41.60;;;;;;5147543;27;43577;-63
2022/03/20 05:39:34;;;;;;;3.40;3.10;;;19.10;41.60;;;;;;5146882;27;43802;-62
2022/03/20 05:42:03;;;;;;;3.20;2.90;;;19.10;41.60;;;;;;5143375;27;43528;-63
2022/03/20 05:44:32;;;;;;;3.45;3.15;;;19.10;41.60;;;;;;5141156;27;43509;-62
2022/03/20 05:47:01;;;;;;;3.60;3.30;;;19.10;41.50;;;;;;5147584;27;43375;-63
2022/03/20 05:49:29;;;;;;;4.03;3.40;;;19.10;41.50;;;;;;5143213;27;43800;-62
2022/03/20 05:51:57;;;;;;;3.92;3.42;;;19.10;41.50;;;;;;5144690;27;43981;-63
2022/03/20 05:54:24;;;;;;;4.18;3.78;;;19.00;41.40;;;;;;5146612;27;43415;-62
2022/03/20 05:59:38;;;;;;;4.88;3.80;;;19.00;41.50;;;;;;5144465;27;43803;-62
2022/03/20 06:02:09;;;;;;;3.80;3.50;;;19.00;41.50;;;;;;5144369;27;43451;-62
2022/03/20 06:04:38;;;;;;;4.28;3.38;;;19.00;41.50;;;;;;5139825;27;43476;-62
2022/03/20 06:07:08;;;;;;;3.67;3.22;;;18.90;41.40;;;;;;5146702;27;43608;-62
2022/03/20 06:09:37;;;;;;;3.70;3.30;;;19.00;41.50;;;;;;5143870;27;44686;-63
2022/03/20 06:12:07;;;;;;;4.32;3.78;;;18.90;41.40;;;;;;5157575;27;43967;-62
2022/03/20 06:14:35;;;;;;;4.28;3.60;;;18.90;41.50;;;;;;5146497;27;43463;-62
2022/03/20 06:17:05;;;;;;;4.00;3.47;;;18.90;41.50;;;;;;5146727;27;43509;-62
2022/03/20 06:19:35;;;;;;;3.50;3.20;;;18.90;41.40;;;;;;5146528;27;45441;-63
2022/03/20 06:22:03;;;;;;;3.85;3.53;;;18.90;41.40;;;;;;5146435;27;43969;-63
2022/03/20 06:24:32;;;;;;;5.20;3.70;;;18.90;41.50;;;;;;5141699;27;43516;-62
2022/03/20 06:27:00;;;;;;;4.05;3.65;;;18.90;41.50;;;;;;5143939;27;43442;-63
2022/03/20 06:29:27;;;;;;;4.80;3.65;;;18.90;41.30;;;;;;5141477;27;43851;-63
2022/03/20 06:31:55;;;;;;;3.75;3.40;;;18.90;41.30;;;;;;5143743;27;43484;-62
2022/03/20 06:34:23;;;;;;;4.65;3.58;;;18.90;41.40;;;;;;5143910;27;43556;-63
2022/03/20 06:36:52;;;;;;;3.85;3.42;;;18.90;41.40;;;;;;5146576;27;43445;-62
2022/03/20 06:39:20;;;;;;;7.22;4.15;;;18.90;41.30;;;;;;5141845;27;43594;-63
2022/03/20 06:41:47;;;;;;;4.40;4.00;;;18.90;41.40;;;;;;5146256;27;43386;-62
2022/03/20 06:44:17;;;;;;;4.50;4.00;;;18.90;41.30;;;;;;5125426;27;43473;-62
2022/03/20 06:46:45;;;;;;;4.40;4.00;;;18.90;41.30;;;;;;5146090;27;43489;-62
2022/03/20 06:49:13;;;;;;;4.75;3.85;;;18.90;41.30;;;;;;5142298;27;43745;-63
2022/03/20 06:51:40;;;;;;;4.20;3.80;;;18.80;41.20;;;;;;5146253;27;43955;-63
2022/03/20 06:54:08;;;;;;;4.28;3.88;;;18.80;41.90;;;;;;5145157;27;43449;-62
2022/03/20 06:56:35;;;;;;;4.78;3.83;;;18.80;41.20;;;;;;5143965;27;43462;-63
2022/03/20 06:59:03;;;;;;;4.10;3.67;;;18.80;41.20;;;;;;5124958;27;43934;-63
2022/03/20 07:01:30;;;;;;;4.80;4.28;;;18.80;41.10;;;;;;5130032;27;43450;-63
2022/03/20 07:03:58;;;;;;;4.82;4.38;;;18.80;41.00;;;;;;5143259;27;43556;-63
2022/03/20 07:06:28;;;;;;;4.43;4.03;;;18.80;41.10;;;;;;5142828;27;43497;-62
2022/03/20 07:08:59;;;;;;;4.75;4.25;;;18.80;41.10;;;;;;5144517;27;43787;-62
2022/03/20 07:11:32;;;;;;;4.40;4.00;;;18.80;41.10;;;;;;5125558;27;44503;-62
2022/03/20 07:14:02;;;;;;;4.65;4.18;;;18.80;41.20;;;;;;5140459;27;43463;-62
2022/03/20 07:16:33;;;;;;;4.55;4.15;;;18.70;41.00;;;;;;5122619;27;43486;-62
2022/03/20 07:19:01;;;;;;;4.85;4.10;;;18.70;41.10;;;;;;5145564;27;44887;-63
2022/03/20 07:21:32;;;;;;;4.68;4.20;;;18.70;41.20;;;;;;5142986;27;44011;-62
2022/03/20 07:24:02;;;;;;;4.70;4.10;;;18.80;41.10;;;;;;5145333;27;43442;-63
2022/03/20 07:29:30;;;;;;;6.10;5.00;;;18.70;41.40;;;;;;5139038;27;43974;-62
2022/03/20 07:32:02;;;;;;;5.93;5.00;;;18.70;41.40;;;;;;5139129;27;43759;-63
2022/03/20 07:34:31;;;;;;;5.70;5.20;;;18.70;41.30;;;;;;5141819;27;43476;-62
2022/03/20 07:36:58;;;;;;;5.32;4.82;;;18.70;41.30;;;;;;5139231;27;43495;-62
2022/03/20 07:39:27;;;;;;;5.68;4.75;;;18.80;41.20;;;;;;5145345;27;43800;-63
2022/03/20 07:41:57;;;;;;;5.47;4.70;;;18.80;41.00;;;;;;5143748;27;43541;-62
2022/03/20 07:44:26;;;;;;;5.07;4.43;;;18.80;41.00;;;;;;5141775;27;43476;-62
2022/03/20 07:46:54;;;;;;;5.20;4.70;;;18.80;41.00;;;;;;5145426;27;43998;-62
2022/03/20 07:49:22;;;;;;;5.53;4.60;;;18.90;41.00;;;;;;5144991;27;43812;-63
2022/03/20 07:51:50;;;;;;;5.50;4.60;;;19.00;41.00;;;;;;5142957;27;43724;-62
2022/03/20 07:54:17;;;;;;;5.03;4.53;;;19.10;41.00;;;;;;5142225;27;43599;-62
2022/03/20 07:56:45;;;;;;;5.30;4.80;;;19.10;40.90;;;;;;5145186;27;43495;-63
2022/03/20 07:59:12;;;;;;;5.75;5.20;;;19.20;40.60;;;;;;5142673;27;43866;-63
2022/03/20 08:01:40;;;;;;;8.23;5.30;;;19.30;40.50;;;;;;5145160;27;43811;-62
2022/03/20 08:04:08;;;;;;;5.95;4.70;;;19.40;40.40;;;;;;5144271;27;43584;-62
2022/03/20 08:06:36;;;;;;;5.70;5.05;;;19.50;40.60;;;;;;5147040;27;43467;-62
2022/03/20 08:09:04;;;;;;;5.65;5.05;;;19.50;40.20;;;;;;5146553;27;44098;-62
2022/03/20 08:11:32;;;;;;;5.53;5.03;;;19.50;40.30;;;;;;5143448;27;43639;-62
2022/03/20 08:14:00;;;;;;;5.63;4.55;;;19.60;40.20;;;;;;5146196;27;43470;-62
2022/03/20 08:16:29;;;;;;;6.53;4.80;;;19.70;40.10;;;;;;5148618;27;43450;-63
2022/03/20 08:18:56;;;;;;;5.82;5.13;;;19.80;40.10;;;;;;5129888;27;43868;-62
2022/03/20 08:21:24;;;;;;;4.97;4.47;;;19.90;39.90;;;;;;5148050;27;43715;-62
2022/03/20 08:23:53;;;;;;;5.28;4.78;;;19.90;39.90;;;;;;5147730;27;43533;-62
2022/03/20 08:26:21;;;;;;;5.38;4.88;;;20.00;39.90;;;;;;5146879;27;43402;-63
2022/03/20 08:28:48;;;;;;;5.68;5.03;;;20.10;39.90;;;;;;5147964;27;43801;-62
2022/03/20 08:31:16;;;;;;;5.38;4.85;;;20.10;39.80;;;;;;5145373;27;43986;-62
2022/03/20 08:33:43;;;;;;;6.07;5.10;;;20.20;39.90;;;;;;5147666;27;43430;-62
2022/03/20 08:36:13;;;;;;;5.75;4.88;;;20.20;39.40;;;;;;5129786;27;43470;-62
2022/03/20 08:38:41;;;;;;;6.53;4.88;;;20.30;39.40;;;;;;5131920;27;44701;-63
2022/03/20 08:41:09;;;;;;;5.60;5.10;;;20.30;39.50;;;;;;5145796;27;43438;-62
2022/03/20 08:43:36;;;;;;;5.43;4.93;;;20.40;39.40;;;;;;5147928;27;43432;-62
2022/03/20 08:46:04;;;;;;;5.80;5.20;;;20.50;39.50;;;;;;5115958;27;43442;-62
2022/03/20 08:48:31;;;;;;;6.22;5.03;;;20.60;39.30;;;;;;5145735;27;45261;-62
2022/03/20 08:50:59;;;;;;;6.13;5.22;;;20.70;39.10;;;;;;5145427;27;43459;-62
2022/03/20 08:53:27;;;;;;;5.78;5.22;;;20.80;39.00;;;;;;5148162;27;43579;-62
2022/03/20 08:55:55;;;;;;;5.95;5.30;;;20.80;39.00;;;;;;5147948;27;43477;-62
2022/03/20 08:58:22;;;;;;;5.80;5.30;;;20.90;38.90;;;;;;5148075;27;43948;-63
2022/03/20 09:00:50;;;;;;;6.07;5.03;;;20.90;38.80;;;;;;5145448;27;43676;-63
2022/03/20 09:03:18;;;;;;;6.35;5.30;;;20.90;38.80;;;;;;5144714;27;43461;-62
2022/03/20 09:05:45;;;;;;;5.68;5.18;;;21.00;38.80;;;;;;5144651;27;43623;-62
2022/03/20 09:08:13;;;;;;;5.93;5.40;;;21.00;39.10;;;;;;5145399;27;44081;-62
2022/03/20 09:10:41;;;;;;;6.07;5.47;;;21.00;39.00;;;;;;5146225;27;43476;-62
2022/03/20 09:13:08;;;;;;;6.35;5.60;;;21.10;38.90;;;;;;5147489;27;43445;-62
2022/03/20 09:15:36;;;;;;;6.88;5.50;;;21.20;39.00;;;;;;5144645;27;43455;-62
2022/03/20 09:20:50;;;;;;;6.43;5.75;;;21.30;38.80;;;;;;5126439;27;44836;-62
2022/03/20 09:23:17;;;;;;;6.15;5.55;;;21.40;38.60;;;;;;5147145;27;43435;-62
2022/03/20 09:25:44;;;;;;;5.85;5.25;;;21.40;38.50;;;;;;5147097;27;43490;-62
2022/03/20 09:28:13;;;;;;;6.07;5.43;;;21.50;38.30;;;;;;5139760;27;44830;-61
2022/03/20 09:30:42;;;;;;;6.20;5.60;;;21.60;38.60;;;;;;5144530;27;43415;-62
2022/03/20 09:33:10;;;;;;;7.28;5.63;;;21.60;38.50;;;;;;5121368;27;43491;-62
2022/03/20 09:35:39;;;;;;;6.40;5.72;;;21.70;38.50;;;;;;5142543;27;43981;-62
2022/03/20 09:38:09;;;;;;;7.45;5.97;;;21.80;38.50;;;;;;5138592;27;44236;-62
2022/03/20 09:40:38;;;;;;;6.18;5.57;;;21.90;38.20;;;;;;5139603;27;44098;-62
2022/03/20 09:43:06;;;;;;;6.35;5.75;;;21.90;38.30;;;;;;5144287;27;43428;-63
2022/03/20 09:45:35;;;;;;;7.35;5.60;;;22.10;38.50;;;;;;5145822;27;43614;-62
2022/03/20 09:48:04;;;;;;;7.65;6.28;;;22.10;38.30;;;;;;5144988;27;44014;-62
2022/03/20 09:50:32;;;;;;;6.10;5.50;;;22.20;38.20;;;;;;5126775;27;43430;-63
2022/03/20 09:52:59;;;;;;;6.82;5.75;;;22.30;38.20;;;;;;5128990;27;43591;-63
2022/03/20 09:55:27;;;;;;;6.35;5.75;;;22.40;38.50;;;;;;5145404;27;43481;-62
2022/03/20 09:57:56;;;;;;;6.93;5.70;;;22.40;38.30;;;;;;5144825;27;43793;-64
2022/03/20 10:00:24;;;;;;;7.97;6.53;;;22.40;38.20;;;;;;5129590;27;43525;-62
2022/03/20 10:02:51;;;;;;;10.60;6.75;;;22.50;38.20;;;;;;5143526;27;43639;-62
2022/03/20 10:05:26;;;;;;;7.95;5.88;;;22.50;38.30;;;;;;5145258;27;43512;-62
2022/03/20 10:07:53;;;;;;;8.93;6.30;;;22.60;38.20;;;;;;5144291;27;45098;-62
2022/03/20 10:10:32;;;;;;;6.82;6.00;;;22.60;38.30;;;;;;5142968;27;43657;-64
2022/03/20 10:13:00;;;;;;;8.13;5.93;;;22.70;38.30;;;;;;5145585;27;43433;-63
2022/03/20 10:15:40;;;;;;;8.98;6.57;;;22.70;38.70;;;;;;5144484;27;43663;-61
2022/03/20 10:18:10;;;;;;;11.25;6.50;;;22.70;38.20;;;;;;5144975;27;43818;-63
2022/03/20 10:20:44;;;;;;;7.47;6.68;;;22.80;38.20;;;;;;5148650;27;43467;-63
2022/03/20 10:23:36;;;;;;;7.07;6.40;;;22.90;38.10;;;;;;5144552;27;43489;-63
2022/03/20 10:26:06;;;;;;;8.60;6.47;;;23.00;38.10;;;;;;5144689;27;43478;-63
2022/03/20 10:28:40;;;;;;;8.43;6.53;;;23.00;38.00;;;;;;5126603;27;44127;-63
2022/03/20 10:31:10;;;;;;;8.63;6.50;;;23.10;38.00;;;;;;5145416;27;43463;-64
2022/03/20 10:33:40;;;;;;;7.03;6.28;;;23.20;37.90;;;;;;5144919;27;43512;-63
2022/03/20 10:36:12;;;;;;;7.13;6.43;;;23.30;37.70;;;;;;5145209;27;43560;-63
2022/03/20 10:38:48;;;;;;;7.53;6.82;;;23.40;37.70;;;;;;5136590;27;43811;-63
2022/03/20 10:41:27;;;;;;;8.18;6.53;;;23.50;37.60;;;;;;5119473;27;44022;-63
2022/03/20 10:43:56;;;;;;;7.20;6.50;;;23.50;37.30;;;;;;5142652;27;43524;-63
2022/03/20 10:46:31;;;;;;;7.60;6.32;;;23.60;37.30;;;;;;5145028;27;43476;-63
2022/03/20 10:49:05;;;;;;;8.05;6.85;;;23.60;37.20;;;;;;5144353;27;44667;-64
2022/03/20 10:51:38;;;;;;;7.85;7.05;;;23.70;37.20;;;;;;5145129;27;43770;-63
2022/03/20 10:54:10;;;;;;;7.38;6.68;;;23.80;37.10;;;;;;5144244;27;43475;-63
2022/03/20 10:56:55;;;;;;;7.55;6.78;;;23.80;37.00;;;;;;5144825;27;43454;-63
2022/03/20 10:59:23;;;;;;;8.00;6.78;;;23.80;36.90;;;;;;5144307;27;44990;-63
2022/03/20 11:01:51;;;;;;;8.25;7.45;;;23.80;37.00;;;;;;5143870;27;43524;-63
2022/03/20 11:04:20;;;;;;;7.78;6.97;;;23.80;36.70;;;;;;5144172;27;43407;-63
2022/03/20 11:06:54;;;;;;;7.95;7.15;;;23.80;36.80;;;;;;5144143;27;43504;-63
2022/03/20 11:09:22;;;;;;;7.97;7.17;;;23.80;37.50;;;;;;5143703;27;43788;-63
2022/03/20 11:11:54;;;;;;;7.95;6.90;;;23.80;36.70;;;;;;5144252;27;43688;-62
2022/03/20 11:14:24;;;;;;;7.95;7.15;;;23.80;36.90;;;;;;5139986;27;43467;-62
2022/03/20 11:17:05;;;;;;;8.50;7.03;;;23.80;36.70;;;;;;5142894;27;43815;-62
2022/03/20 11:19:37;;;;;;;7.22;6.53;;;23.80;36.70;;;;;;5142471;27;43947;-62
2022/03/20 11:22:10;;;;;;;8.70;7.80;;;23.80;36.60;;;;;;5140066;27;43568;-63
2022/03/20 11:24:41;;;;;;;7.78;7.07;;;23.80;36.60;;;;;;5123609;27;44975;-63
2022/03/20 11:27:11;;;;;;;8.57;7.25;;;23.80;36.60;;;;;;5144034;27;43543;-63
2022/03/20 11:29:51;;;;;;;8.57;7.72;;;23.80;36.60;;;;;;5143852;27;43797;-64
2022/03/20 11:32:20;;;;;;;8.68;7.72;;;23.80;36.60;;;;;;5125715;27;43476;-64
2022/03/20 11:34:49;;;;;;;8.95;7.68;;;23.80;36.50;;;;;;5125048;27;43520;-65
2022/03/20 11:37:18;;;;;;;8.50;7.03;;;23.80;36.60;;;;;;5144354;27;43543;-64
2022/03/20 11:40:10;;;;;;;8.70;7.90;;;23.80;36.60;;;;;;5142656;27;43984;-63
2022/03/20 11:42:39;;;;;;;8.10;7.30;;;23.80;36.50;;;;;;5143496;27;43552;-63
2022/03/20 11:45:09;;;;;;;8.10;7.30;;;23.80;36.70;;;;;;5147270;27;43441;-62
2022/03/20 11:47:39;;;;;;;9.25;8.18;;;23.70;36.50;;;;;;5144945;27;44057;-63
2022/03/20 11:50:07;;;;;;;8.63;7.72;;;23.70;36.80;;;;;;5129453;27;44282;-63
2022/03/20 11:53:02;;;;;;;8.68;7.80;;;23.80;36.80;;;;;;5146839;27;43403;-63
2022/03/20 11:55:41;;;;;;;8.90;7.93;;;23.80;36.90;;;;;;5143630;27;43561;-63
2022/03/20 11:58:29;;;;;;;9.10;7.93;;;23.80;36.80;;;;;;5147750;27;43466;-63
2022/03/20 12:01:02;;;;;;;8.70;7.80;;;23.80;36.80;;;;;;5146770;27;44107;-62
2022/03/20 12:03:55;;;;;;;8.80;7.90;;;23.80;36.60;;;;;;5145546;27;43786;-63
2022/03/20 12:07:00;;;;;;;8.95;8.10;;;23.80;36.40;;;;;;5129652;27;43539;-63
2022/03/20 12:09:47;;;;;;;9.23;8.25;;;23.80;36.30;;;;;;5143789;27;43500;-63
2022/03/20 12:12:26;;;;;;;9.45;8.18;;;23.80;36.30;;;;;;5144290;27;43806;-63
2022/03/20 12:14:56;;;;;;;9.20;8.30;;;23.80;36.40;;;;;;5143773;27;43998;-62
2022/03/20 12:17:23;;;;;;;9.20;8.30;;;23.80;36.50;;;;;;5142473;27;43420;-62
2022/03/20 12:19:53;;;;;;;9.65;8.65;;;23.80;36.30;;;;;;5146444;27;43622;-63
2022/03/20 12:22:21;;;;;;;9.38;8.48;;;23.80;36.40;;;;;;5146804;27;44045;-63
2022/03/20 12:24:52;;;;;;;9.68;8.70;;;23.80;36.10;;;;;;5146432;27;43569;-62
2022/03/20 12:27:22;;;;;;;9.82;8.82;;;23.80;36.10;;;;;;5144832;27;43489;-62
2022/03/20 12:29:57;;;;;;;9.68;8.75;;;23.80;36.00;;;;;;5144683;27;43434;-63
2022/03/20 12:32:27;;;;;;;9.75;8.75;;;23.80;36.10;;;;;;5146734;27;44069;-62
2022/03/20 12:35:00;;;;;;;9.10;8.27;;;23.80;36.10;;;;;;5127970;27;43986;-63
2022/03/20 12:37:30;;;;;;;9.13;7.90;;;23.80;36.50;;;;;;5143655;27;43440;-63
2022/03/20 12:40:10;;;;;;;8.80;7.90;;;23.80;36.50;;;;;;5145821;27;43588;-63
2022/03/20 12:42:59;;;;;;;9.70;8.10;;;23.70;36.90;;;;;;5133289;27;45044;-63
2022/03/20 12:45:28;;;;;;;9.60;7.93;;;23.70;36.80;;;;;;5146319;27;43588;-63
2022/03/20 12:47:58;;;;;;;9.13;8.23;;;23.70;36.90;;;;;;5146486;27;43473;-62
2022/03/20 12:50:33;;;;;;;10.02;9.02;;;23.60;37.00;;;;;;5110716;27;43529;-62
2022/03/20 12:53:06;;;;;;;9.20;7.78;;;23.60;36.70;;;;;;5145748;27;44029;-63
2022/03/20 12:55:34;;;;;;;8.40;7.57;;;23.60;36.90;;;;;;5145680;27;43941;-64
2022/03/20 12:58:02;;;;;;;9.50;8.50;;;23.50;37.10;;;;;;5146155;27;43472;-63
2022/03/20 13:00:32;;;;;;;9.32;8.35;;;23.50;37.00;;;;;;5147119;27;43506;-63
2022/03/20 13:03:08;;;;;;;8.60;7.70;;;23.40;36.60;;;;;;5146295;27;43979;-63
2022/03/20 13:05:57;;;;;;;9.90;8.40;;;23.40;36.80;;;;;;5145202;27;43523;-62
2022/03/20 13:08:27;;;;;;;9.30;8.40;;;23.40;36.60;;;;;;5125332;27;43492;-62
2022/03/20 13:10:57;;;;;;;9.45;8.43;;;23.40;36.80;;;;;;5142394;27;43618;-62
2022/03/20 13:13:30;;;;;;;9.20;8.15;;;23.40;36.80;;;;;;5144382;27;44066;-62
2022/03/20 13:15:57;;;;;;;9.15;8.15;;;23.40;36.80;;;;;;5144729;27;43802;-62
2022/03/20 13:18:28;;;;;;;8.82;7.93;;;23.40;36.90;;;;;;5145182;27;43439;-62
2022/03/20 13:20:56;;;;;;;8.52;7.60;;;23.40;36.80;;;;;;5146120;27;43461;-62
2022/03/20 13:23:25;;;;;;;8.63;7.82;;;23.40;37.10;;;;;;5146026;27;43863;-63
2022/03/20 13:25:57;;;;;;;9.02;8.13;;;23.40;36.80;;;;;;5144920;27;44223;-62
2022/03/20 13:28:40;;;;;;;9.00;7.72;;;23.50;36.80;;;;;;5146166;27;43424;-62
2022/03/20 13:31:12;;;;;;;8.38;7.57;;;23.50;36.80;;;;;;5146010;27;43544;-63
2022/03/20 13:33:52;;;;;;;8.95;8.05;;;23.50;36.90;;;;;;5145114;27;43747;-63
2022/03/20 13:36:26;;;;;;;9.27;8.15;;;23.40;36.10;;;;;;5145003;27;43469;-64